Time;durP1;ratioP1;P1;durP2;ratioP2;P2;SDS_P1;SDS_P2;PMS_P1;PMS_P2;Temp;Humidity;BMP_temperature;BMP_pressure;BME280_temperature;BME280_humidity;BME280_pressure;Samples;Min_cycle;Max_cycle;Signal;HPM_P1;HPM_P2
2023/09/09 03:34:14;;;;;;;7.00;5.77;;;16.10;99.90;;;;;;5048271;28;20475;-96
2023/09/09 03:36:42;;;;;;;7.60;5.37;;;16.10;99.90;;;;;;5057339;28;20506;-96
2023/09/09 03:39:12;;;;;;;6.17;5.67;;;16.00;99.90;;;;;;5057472;28;20470;-96
2023/09/09 03:41:40;;;;;;;5.83;5.30;;;16.10;99.90;;;;;;5040161;28;20501;-96
2023/09/09 03:44:07;;;;;;;7.30;5.47;;;16.00;99.90;;;;;;5057529;28;20477;-95
2023/09/09 03:46:34;;;;;;;6.63;6.03;;;16.00;99.90;;;;;;5096506;22;20501;-94
2023/09/09 03:49:01;;;;;;;6.20;5.60;;;16.00;99.90;;;;;;5044149;28;20897;-96
2023/09/09 03:51:29;;;;;;;5.90;5.03;;;16.00;99.90;;;;;;5041436;28;20459;-94
2023/09/09 03:53:56;;;;;;;6.87;5.67;;;16.00;99.90;;;;;;5039980;28;20454;-95
2023/09/09 03:56:23;;;;;;;5.60;5.10;;;16.00;99.90;;;;;;5036193;28;20507;-94
2023/09/09 03:58:49;;;;;;;5.93;5.33;;;16.00;99.90;;;;;;5037008;28;20474;-96
2023/09/09 04:01:16;;;;;;;6.00;5.40;;;16.00;99.90;;;;;;5038484;28;20471;-94
2023/09/09 04:03:45;;;;;;;6.90;4.70;;;16.00;99.90;;;;;;5034916;28;20477;-94
2023/09/09 04:06:13;;;;;;;6.80;5.80;;;15.90;99.90;;;;;;5032445;28;20479;-94
2023/09/09 04:08:42;;;;;;;5.73;5.13;;;15.90;99.90;;;;;;5030709;28;20463;-96
2023/09/09 04:11:14;;;;;;;6.77;6.17;;;15.90;99.90;;;;;;5051013;28;20443;-96
2023/09/09 04:13:41;;;;;;;5.80;5.20;;;15.90;99.90;;;;;;5057111;22;20503;-67
2023/09/09 04:16:08;;;;;;;5.90;5.30;;;15.90;99.90;;;;;;5010425;28;20490;-68
2023/09/09 04:18:35;;;;;;;6.30;5.63;;;15.80;99.90;;;;;;5009882;28;20464;-67
2023/09/09 04:21:01;;;;;;;6.63;5.30;;;15.80;99.90;;;;;;5010271;28;20479;-67
2023/09/09 04:23:28;;;;;;;6.10;5.00;;;15.80;99.90;;;;;;5011967;28;20463;-67
2023/09/09 04:25:56;;;;;;;5.60;5.10;;;15.80;99.90;;;;;;5013918;28;20842;-67
2023/09/09 04:28:23;;;;;;;6.10;5.33;;;15.80;99.90;;;;;;5014277;28;20460;-67
2023/09/09 04:30:49;;;;;;;6.57;5.47;;;15.80;99.90;;;;;;5014225;28;20479;-67
2023/09/09 04:33:16;;;;;;;6.13;5.53;;;15.80;99.90;;;;;;5013729;28;20467;-68
2023/09/09 04:35:43;;;;;;;5.70;5.20;;;15.80;99.90;;;;;;5013984;28;20483;-67
2023/09/09 04:38:10;;;;;;;5.77;5.27;;;15.80;99.90;;;;;;5013574;28;20458;-67
2023/09/09 04:40:39;;;;;;;7.23;6.13;;;15.80;99.90;;;;;;5013799;28;20484;-67
2023/09/09 04:43:08;;;;;;;6.63;5.93;;;15.80;99.90;;;;;;5005243;28;20951;-67
2023/09/09 04:45:34;;;;;;;6.03;5.43;;;15.80;99.90;;;;;;5014125;28;20464;-66
2023/09/09 04:48:01;;;;;;;6.10;5.50;;;15.80;99.90;;;;;;5013746;28;20467;-67
2023/09/09 04:50:28;;;;;;;6.10;5.40;;;15.80;99.90;;;;;;5014048;28;20951;-66
2023/09/09 04:52:54;;;;;;;6.13;5.13;;;15.80;99.90;;;;;;5013244;28;20466;-66
2023/09/09 04:55:21;;;;;;;5.53;5.03;;;15.80;99.90;;;;;;5013862;28;20452;-67
2023/09/09 04:57:48;;;;;;;5.97;5.43;;;15.80;99.90;;;;;;5013567;28;20870;-66
2023/09/09 05:00:17;;;;;;;7.27;5.47;;;15.70;99.90;;;;;;5013569;28;20469;-66
2023/09/09 05:02:43;;;;;;;6.03;5.43;;;15.70;99.90;;;;;;5012969;28;20480;-67
2023/09/09 05:05:10;;;;;;;6.37;5.27;;;15.70;99.90;;;;;;5013589;28;20469;-67
2023/09/09 05:07:37;;;;;;;5.13;4.73;;;15.70;99.90;;;;;;5013314;28;20466;-67
2023/09/09 05:10:05;;;;;;;5.70;5.20;;;15.70;99.90;;;;;;5012548;28;20473;-67
2023/09/09 05:12:32;;;;;;;6.80;6.10;;;15.70;99.90;;;;;;5012916;28;20478;-67
2023/09/09 05:14:59;;;;;;;6.17;5.40;;;15.70;99.90;;;;;;5013131;28;20831;-67
2023/09/09 05:17:27;;;;;;;5.90;5.40;;;15.70;99.90;;;;;;5013462;28;20480;-67
2023/09/09 05:19:54;;;;;;;7.00;6.10;;;15.80;99.90;;;;;;5013302;28;20464;-67
2023/09/09 05:22:21;;;;;;;5.93;5.33;;;15.80;99.90;;;;;;5012889;28;20479;-66
2023/09/09 05:24:47;;;;;;;5.70;5.20;;;15.80;99.90;;;;;;5012899;28;20460;-67
2023/09/09 05:27:14;;;;;;;7.00;6.37;;;15.90;99.90;;;;;;5013211;28;20958;-66
2023/09/09 05:29:42;;;;;;;8.20;6.13;;;15.90;99.90;;;;;;5013166;28;20463;-66
2023/09/09 05:32:09;;;;;;;6.33;5.47;;;15.90;99.90;;;;;;5012590;28;20481;-66
2023/09/09 05:34:37;;;;;;;6.00;5.40;;;16.00;99.90;;;;;;5011628;28;20463;-66
2023/09/09 05:37:04;;;;;;;6.87;6.13;;;16.00;99.90;;;;;;5012652;28;21020;-67
2023/09/09 05:39:31;;;;;;;6.93;5.93;;;16.00;99.90;;;;;;5012976;28;20455;-66
2023/09/09 05:41:58;;;;;;;6.77;6.10;;;16.10;99.90;;;;;;5011937;28;20484;-67
2023/09/09 05:44:24;;;;;;;6.10;5.57;;;16.10;99.90;;;;;;5012513;28;20471;-66
2023/09/09 05:46:51;;;;;;;6.20;5.60;;;16.10;99.90;;;;;;5011881;28;20452;-67
2023/09/09 05:49:18;;;;;;;6.83;6.23;;;16.20;99.90;;;;;;5012597;28;20459;-67
2023/09/09 05:51:46;;;;;;;7.43;6.00;;;16.20;99.90;;;;;;5012047;28;20474;-67
2023/09/09 05:54:13;;;;;;;7.10;6.40;;;16.30;99.90;;;;;;5004962;28;20840;-67
2023/09/09 05:56:39;;;;;;;7.10;6.37;;;16.30;99.90;;;;;;5012474;28;20487;-67
2023/09/09 05:59:08;;;;;;;7.53;6.17;;;16.30;99.90;;;;;;5012556;28;20455;-67
2023/09/09 06:01:34;;;;;;;7.30;6.60;;;16.30;99.90;;;;;;5011854;28;20859;-67
2023/09/09 06:04:01;;;;;;;7.73;6.93;;;16.40;99.90;;;;;;5012466;28;20466;-67
2023/09/09 06:06:28;;;;;;;7.47;6.67;;;16.50;99.90;;;;;;5012168;28;20826;-66
2023/09/09 06:08:57;;;;;;;8.27;6.50;;;16.50;99.90;;;;;;5011285;28;20950;-66
2023/09/09 06:11:25;;;;;;;8.33;7.10;;;16.60;99.90;;;;;;5011678;28;20487;-65
2023/09/09 06:13:51;;;;;;;6.50;5.90;;;16.70;99.90;;;;;;5011897;28;20469;-66
2023/09/09 06:16:18;;;;;;;8.17;7.27;;;16.80;99.90;;;;;;5011967;28;20479;-66
2023/09/09 06:18:45;;;;;;;8.23;7.40;;;16.80;99.90;;;;;;5011779;28;20474;-66
2023/09/09 06:21:11;;;;;;;8.00;7.20;;;16.90;99.90;;;;;;5011544;28;20490;-66
2023/09/09 06:23:38;;;;;;;7.40;6.70;;;16.90;99.90;;;;;;5011555;28;20696;-67
2023/09/09 06:26:06;;;;;;;8.10;6.60;;;17.00;99.90;;;;;;5011175;28;20943;-66
2023/09/09 06:28:33;;;;;;;7.27;6.53;;;17.10;99.90;;;;;;5012064;28;20479;-66
2023/09/09 06:30:59;;;;;;;8.23;6.90;;;17.20;99.90;;;;;;5011863;28;20487;-67
2023/09/09 06:33:26;;;;;;;5.77;5.27;;;17.30;99.90;;;;;;5011241;28;20467;-66
2023/09/09 06:35:54;;;;;;;7.50;6.67;;;17.40;99.90;;;;;;5011234;28;20464;-66
2023/09/09 06:38:21;;;;;;;7.83;6.53;;;17.40;99.90;;;;;;5011290;28;20464;-67
2023/09/09 06:40:48;;;;;;;7.30;6.60;;;17.50;99.90;;;;;;5011576;28;20822;-67
2023/09/09 06:43:18;;;;;;;8.00;6.50;;;17.60;99.90;;;;;;5010948;28;20461;-66
2023/09/09 06:45:44;;;;;;;7.80;7.00;;;17.80;99.90;;;;;;5010819;28;20460;-66
2023/09/09 06:48:16;;;;;;;8.37;7.00;;;17.90;99.90;;;;;;5011535;28;20464;-65
2023/09/09 06:50:44;;;;;;;7.30;6.60;;;18.00;99.90;;;;;;5006479;28;21079;-66
2023/09/09 06:53:11;;;;;;;7.43;6.60;;;18.20;99.90;;;;;;5001357;28;20478;-66
2023/09/09 06:55:38;;;;;;;7.33;6.30;;;18.30;99.90;;;;;;5010914;28;20471;-66
2023/09/09 06:58:05;;;;;;;12.73;7.33;;;18.50;99.90;;;;;;5010897;28;20485;-66
2023/09/09 07:00:33;;;;;;;8.90;7.43;;;18.60;99.90;;;;;;5010902;28;20511;-65
2023/09/09 07:03:00;;;;;;;8.20;7.40;;;18.70;99.90;;;;;;5010485;28;20465;-66
2023/09/09 07:05:27;;;;;;;7.73;7.03;;;18.90;99.90;;;;;;5010146;28;20493;-66
2023/09/09 07:07:54;;;;;;;8.33;7.57;;;19.10;99.90;;;;;;5010957;28;20489;-66
2023/09/09 07:10:21;;;;;;;7.77;7.07;;;19.20;99.90;;;;;;5010725;28;20472;-66
2023/09/09 07:12:49;;;;;;;10.17;7.90;;;19.40;99.90;;;;;;5009963;28;20458;-66
2023/09/09 07:15:16;;;;;;;10.07;8.03;;;19.60;99.90;;;;;;5009860;28;20480;-66
2023/09/09 07:17:46;;;;;;;8.37;6.90;;;19.80;99.90;;;;;;5010853;28;20985;-66
2023/09/09 07:20:14;;;;;;;7.70;6.90;;;19.90;99.90;;;;;;5010363;28;20457;-66
2023/09/09 07:22:41;;;;;;;7.90;7.10;;;20.10;99.90;;;;;;5010622;28;20549;-66
2023/09/09 07:25:08;;;;;;;8.20;7.27;;;20.20;99.90;;;;;;5009662;28;20486;-65
2023/09/09 07:27:35;;;;;;;7.63;6.93;;;20.40;99.90;;;;;;5007481;28;20491;-67
2023/09/09 07:30:04;;;;;;;7.47;6.77;;;20.50;99.90;;;;;;4997383;28;20476;-66
2023/09/09 07:32:31;;;;;;;6.93;6.17;;;20.70;99.90;;;;;;5008040;28;20688;-66
2023/09/09 07:35:01;;;;;;;8.17;7.20;;;20.80;99.90;;;;;;5008704;28;21008;-66
2023/09/09 07:37:28;;;;;;;9.40;7.30;;;21.00;99.90;;;;;;5008041;28;20563;-67
2023/09/09 07:39:57;;;;;;;6.70;5.90;;;21.10;99.90;;;;;;5009200;28;20533;-67
2023/09/09 07:42:24;;;;;;;7.70;7.00;;;21.30;99.90;;;;;;5003763;28;20479;-66
2023/09/09 07:44:51;;;;;;;7.63;7.00;;;21.40;99.90;;;;;;5010031;28;20474;-67
2023/09/09 07:47:18;;;;;;;8.30;7.10;;;21.60;99.90;;;;;;5009696;28;20810;-67
2023/09/09 07:49:44;;;;;;;8.87;7.30;;;21.80;99.90;;;;;;5007922;28;20500;-66
2023/09/09 07:52:12;;;;;;;7.93;7.17;;;21.90;99.90;;;;;;5007990;28;20481;-67
2023/09/09 07:54:39;;;;;;;7.90;7.20;;;22.10;99.90;;;;;;5008734;28;20473;-67
2023/09/09 07:57:07;;;;;;;7.30;6.60;;;22.20;99.90;;;;;;5007537;28;20492;-67
2023/09/09 07:59:33;;;;;;;7.50;6.60;;;22.40;99.90;;;;;;5008688;28;20476;-67
2023/09/09 08:02:02;;;;;;;7.13;6.30;;;22.50;99.90;;;;;;5007040;28;20485;-66
2023/09/09 08:04:29;;;;;;;7.67;6.60;;;22.70;99.90;;;;;;4992309;28;20469;-66
2023/09/09 08:06:56;;;;;;;7.37;6.67;;;22.80;99.90;;;;;;4998431;28;20472;-69
2023/09/09 08:09:24;;;;;;;6.40;5.80;;;23.00;99.90;;;;;;5009625;28;20468;-69
2023/09/09 08:11:50;;;;;;;6.90;6.30;;;23.20;99.90;;;;;;5009264;28;20484;-66
2023/09/09 08:14:19;;;;;;;6.07;5.47;;;23.30;99.90;;;;;;5009655;28;21047;-66
2023/09/09 08:16:45;;;;;;;6.70;6.10;;;23.40;99.90;;;;;;5006587;28;20496;-66
2023/09/09 08:19:13;;;;;;;7.10;6.40;;;23.60;99.90;;;;;;4995080;28;20466;-66
2023/09/09 08:21:39;;;;;;;7.40;6.80;;;23.80;99.90;;;;;;5008282;28;20482;-66
2023/09/09 08:24:12;;;;;;;6.23;5.73;;;23.90;99.90;;;;;;5001252;28;20465;-69
2023/09/09 08:26:42;;;;;;;7.07;6.47;;;24.00;99.90;;;;;;5011420;28;20589;-69
2023/09/09 08:29:13;;;;;;;7.07;6.23;;;24.20;99.90;;;;;;5010395;28;20466;-70
2023/09/09 08:31:41;;;;;;;6.10;5.60;;;24.20;99.90;;;;;;5009432;28;20484;-70
2023/09/09 08:34:07;;;;;;;6.40;5.60;;;24.40;99.90;;;;;;5009602;28;20458;-67
2023/09/09 08:36:34;;;;;;;5.90;5.40;;;24.60;99.90;;;;;;5009775;28;20580;-66
2023/09/09 08:39:01;;;;;;;6.60;6.00;;;24.60;99.90;;;;;;5009707;28;20461;-67
2023/09/09 08:41:44;;;;;;;6.10;5.60;;;24.70;99.90;;;;;;5008796;28;20486;-69
2023/09/09 08:44:19;;;;;;;6.27;5.70;;;24.80;99.90;;;;;;5009818;28;20858;-68
2023/09/09 08:46:46;;;;;;;6.80;6.20;;;24.90;99.90;;;;;;5007140;28;20938;-68
2023/09/09 08:49:14;;;;;;;6.77;6.17;;;25.10;99.90;;;;;;5008312;28;20465;-66
2023/09/09 08:51:48;;;;;;;6.57;5.97;;;25.20;99.90;;;;;;5008032;28;20481;-67
2023/09/09 08:54:16;;;;;;;6.83;6.23;;;25.40;99.90;;;;;;5004033;28;20497;-67
2023/09/09 08:56:45;;;;;;;5.90;5.40;;;25.60;99.90;;;;;;5003716;28;20485;-67
2023/09/09 08:59:14;;;;;;;6.13;5.53;;;25.70;99.90;;;;;;5007524;28;20461;-67
2023/09/09 09:01:41;;;;;;;6.70;5.87;;;25.80;99.90;;;;;;5004458;28;20489;-67
2023/09/09 09:04:08;;;;;;;6.30;5.70;;;25.90;99.90;;;;;;5006546;28;20995;-67
2023/09/09 09:06:35;;;;;;;6.13;5.53;;;26.00;99.90;;;;;;5006812;28;20465;-67
2023/09/09 09:09:02;;;;;;;6.10;5.50;;;26.10;99.90;;;;;;5009023;28;21075;-67
2023/09/09 09:11:29;;;;;;;6.00;5.40;;;26.20;99.90;;;;;;5009722;28;20495;-66
2023/09/09 09:14:06;;;;;;;6.20;5.53;;;26.30;99.90;;;;;;5011299;28;20519;-67
2023/09/09 09:16:33;;;;;;;5.83;5.33;;;26.50;99.90;;;;;;5010373;28;20472;-67
2023/09/09 09:19:03;;;;;;;6.80;6.10;;;26.60;99.90;;;;;;5011044;28;20472;-67
2023/09/09 09:21:34;;;;;;;6.20;5.60;;;26.80;99.90;;;;;;5010135;28;20519;-67
2023/09/09 09:24:01;;;;;;;6.20;5.63;;;26.80;99.90;;;;;;5011083;28;20457;-66
2023/09/09 09:26:30;;;;;;;6.40;5.40;;;27.00;99.90;;;;;;5010595;28;20465;-66
2023/09/09 09:29:03;;;;;;;6.13;5.63;;;27.10;99.90;;;;;;5012121;28;20458;-67
2023/09/09 09:31:30;;;;;;;5.07;4.53;;;27.20;99.90;;;;;;5011326;28;20489;-65
2023/09/09 09:33:59;;;;;;;5.20;4.70;;;27.20;99.90;;;;;;5011451;28;20464;-64
2023/09/09 09:36:27;;;;;;;4.43;4.13;;;27.40;99.90;;;;;;5011973;28;20870;-64
2023/09/09 09:38:55;;;;;;;4.77;4.37;;;27.40;99.90;;;;;;5011803;28;20871;-67
2023/09/09 09:41:23;;;;;;;4.70;4.30;;;27.50;99.90;;;;;;5010336;28;20485;-67
2023/09/09 09:43:51;;;;;;;5.33;4.30;;;27.50;99.90;;;;;;5011630;28;20544;-67
2023/09/09 09:46:20;;;;;;;4.67;4.20;;;27.60;99.90;;;;;;5010924;28;20453;-66
2023/09/09 09:48:48;;;;;;;5.77;4.57;;;27.70;99.90;;;;;;5010692;28;20827;-67
2023/09/09 09:51:15;;;;;;;6.63;4.20;;;27.80;99.90;;;;;;5010989;28;20488;-67
2023/09/09 09:53:53;;;;;;;4.70;4.30;;;27.90;99.90;;;;;;5003576;28;20543;-67
2023/09/09 09:56:20;;;;;;;6.53;4.50;;;28.00;99.90;;;;;;5009540;28;20786;-67
2023/09/09 09:58:49;;;;;;;5.13;4.50;;;28.10;99.90;;;;;;5011930;28;20485;-67
2023/09/09 10:01:15;;;;;;;4.70;3.80;;;28.20;99.90;;;;;;5011798;28;20620;-66
2023/09/09 10:03:57;;;;;;;5.43;4.93;;;28.40;99.90;;;;;;5009181;28;20685;-66
2023/09/09 10:06:27;;;;;;;6.27;5.10;;;28.50;99.90;;;;;;5007726;28;20472;-67
2023/09/09 10:09:00;;;;;;;5.93;5.33;;;28.50;99.90;;;;;;5007150;28;20461;-67
2023/09/09 10:11:33;;;;;;;5.97;5.33;;;28.60;99.90;;;;;;5009127;28;20486;-67
2023/09/09 10:14:10;;;;;;;5.80;5.30;;;28.60;99.90;;;;;;5012301;28;20470;-66
2023/09/09 10:16:39;;;;;;;6.40;5.07;;;28.70;99.90;;;;;;5007184;28;20461;-67
2023/09/09 10:19:08;;;;;;;5.43;4.93;;;28.80;99.90;;;;;;5007891;28;20481;-66
2023/09/09 10:21:35;;;;;;;7.00;5.53;;;28.90;99.90;;;;;;5009103;28;20512;-67
2023/09/09 10:24:04;;;;;;;6.13;5.60;;;29.00;99.90;;;;;;5011011;28;20588;-67
2023/09/09 10:26:31;;;;;;;6.67;6.07;;;29.10;99.90;;;;;;5009941;28;20953;-67
2023/09/09 10:28:59;;;;;;;5.53;5.00;;;29.20;99.90;;;;;;5011108;28;20469;-67
2023/09/09 10:31:27;;;;;;;6.10;5.50;;;29.10;99.90;;;;;;5010009;28;21021;-67
2023/09/09 10:33:56;;;;;;;5.70;5.20;;;29.20;99.90;;;;;;5010778;28;20472;-67
2023/09/09 10:36:24;;;;;;;5.63;5.13;;;29.20;99.90;;;;;;5008090;28;20457;-67
2023/09/09 10:38:53;;;;;;;6.03;5.43;;;29.20;99.90;;;;;;5010993;28;20517;-67
2023/09/09 10:41:19;;;;;;;7.13;6.43;;;29.30;99.90;;;;;;5009637;28;20492;-66
2023/09/09 10:43:46;;;;;;;5.60;5.10;;;29.40;99.90;;;;;;5010337;28;20461;-67
2023/09/09 10:46:14;;;;;;;5.67;5.27;;;29.40;99.90;;;;;;5010378;28;20469;-67
2023/09/09 10:48:44;;;;;;;6.17;5.57;;;29.50;99.90;;;;;;5010111;28;20756;-67
2023/09/09 10:51:15;;;;;;;6.07;5.50;;;29.60;99.90;;;;;;5010556;28;20864;-66
2023/09/09 10:53:43;;;;;;;7.13;5.20;;;29.60;99.90;;;;;;5010230;28;20449;-67
2023/09/09 10:56:24;;;;;;;6.07;5.47;;;29.60;99.90;;;;;;5008997;28;20462;-67
2023/09/09 10:58:51;;;;;;;8.30;5.40;;;29.40;99.90;;;;;;5004575;28;20488;-67
2023/09/09 11:01:22;;;;;;;5.43;4.93;;;29.10;99.90;;;;;;5009551;28;20485;-66
2023/09/09 11:03:51;;;;;;;5.33;4.93;;;28.90;99.90;;;;;;5009877;28;20472;-67
2023/09/09 11:06:24;;;;;;;5.23;4.83;;;28.90;99.90;;;;;;5010853;28;20461;-67
2023/09/09 11:08:55;;;;;;;6.13;4.80;;;29.10;99.90;;;;;;5003391;28;20465;-67
2023/09/09 11:11:26;;;;;;;5.67;5.17;;;29.40;99.90;;;;;;5009861;28;20481;-67
2023/09/09 11:14:00;;;;;;;6.03;5.43;;;29.50;99.90;;;;;;5011022;28;20949;-67
2023/09/09 11:16:32;;;;;;;6.70;5.50;;;29.30;99.90;;;;;;5009475;28;20462;-67
2023/09/09 11:19:04;;;;;;;5.80;5.20;;;29.20;99.90;;;;;;5010284;28;20596;-67
2023/09/09 11:21:34;;;;;;;4.80;4.27;;;29.30;99.90;;;;;;5009397;28;20477;-67
2023/09/09 11:24:03;;;;;;;5.30;4.90;;;29.50;99.90;;;;;;5007069;28;20470;-67
2023/09/09 11:26:30;;;;;;;5.00;4.40;;;29.50;99.90;;;;;;5009789;28;20519;-68
2023/09/09 11:28:57;;;;;;;6.30;4.80;;;29.60;99.90;;;;;;5010960;28;20453;-68
2023/09/09 11:31:25;;;;;;;5.20;4.80;;;29.70;99.90;;;;;;5009223;28;20482;-67
2023/09/09 11:33:55;;;;;;;4.10;3.80;;;29.90;99.90;;;;;;5007985;28;20461;-67
2023/09/09 11:36:21;;;;;;;4.30;4.00;;;30.10;99.90;;;;;;5000652;28;21043;-67
2023/09/09 11:38:48;;;;;;;5.07;4.57;;;30.20;99.90;;;;;;5009690;28;20485;-67
2023/09/09 11:41:20;;;;;;;4.90;4.47;;;30.40;99.90;;;;;;5010188;28;20491;-67
2023/09/09 11:43:57;;;;;;;5.20;4.70;;;30.60;99.90;;;;;;5007179;28;20461;-67
2023/09/09 11:46:24;;;;;;;5.03;4.53;;;30.80;99.90;;;;;;5004213;28;20886;-67
2023/09/09 11:48:51;;;;;;;5.20;4.73;;;30.90;99.90;;;;;;5009919;28;20453;-67
2023/09/09 11:51:18;;;;;;;4.90;4.50;;;30.90;99.90;;;;;;4995050;28;20490;-67
2023/09/09 11:53:46;;;;;;;4.43;4.10;;;31.00;99.90;;;;;;5007933;28;20469;-67
2023/09/09 11:56:13;;;;;;;4.90;4.47;;;31.00;99.90;;;;;;5007381;28;20960;-67
2023/09/09 11:58:42;;;;;;;4.97;4.47;;;31.00;99.90;;;;;;5009878;28;20484;-67
2023/09/09 12:01:10;;;;;;;4.83;4.43;;;31.00;99.90;;;;;;5010306;28;20484;-67
2023/09/09 12:03:37;;;;;;;6.50;5.13;;;31.00;99.90;;;;;;5009470;28;20461;-67
2023/09/09 12:06:07;;;;;;;5.80;5.17;;;30.90;99.90;;;;;;5010502;28;20880;-67
2023/09/09 12:08:34;;;;;;;5.47;4.60;;;30.70;99.90;;;;;;5010397;28;20453;-66
2023/09/09 12:11:03;;;;;;;5.13;4.73;;;30.80;99.90;;;;;;5009920;28;20485;-66
2023/09/09 12:13:31;;;;;;;5.27;4.77;;;30.80;99.90;;;;;;5008172;28;20461;-66
2023/09/09 12:15:59;;;;;;;5.30;4.70;;;30.90;99.90;;;;;;5009795;28;20983;-67
2023/09/09 12:18:26;;;;;;;4.40;4.00;;;31.00;99.90;;;;;;5010026;28;20485;-66
2023/09/09 12:21:00;;;;;;;4.87;3.97;;;31.20;99.90;;;;;;5010447;28;20480;-67
2023/09/09 12:23:27;;;;;;;4.40;4.00;;;31.30;99.90;;;;;;5009731;28;20841;-66
2023/09/09 12:25:54;;;;;;;5.13;4.23;;;31.30;99.90;;;;;;5010460;28;20450;-66
2023/09/09 12:28:21;;;;;;;4.67;3.90;;;31.20;99.90;;;;;;5010548;28;20462;-67
2023/09/09 12:30:48;;;;;;;4.90;4.50;;;31.30;99.90;;;;;;5010522;28;20481;-66
2023/09/09 12:33:17;;;;;;;6.17;4.40;;;31.10;99.90;;;;;;5010070;28;20928;-66
2023/09/09 12:35:46;;;;;;;4.50;4.10;;;30.90;99.90;;;;;;5010315;28;20488;-67
2023/09/09 12:38:14;;;;;;;4.40;3.87;;;30.50;99.90;;;;;;5010383;28;20488;-67
2023/09/09 12:40:48;;;;;;;6.63;4.40;;;30.20;99.90;;;;;;5010035;28;20477;-67
2023/09/09 12:43:15;;;;;;;4.97;4.57;;;29.90;99.90;;;;;;5010156;28;20464;-67
2023/09/09 12:45:52;;;;;;;4.13;3.73;;;29.60;99.90;;;;;;5013924;28;20461;-67
2023/09/09 12:48:21;;;;;;;4.67;4.17;;;29.50;99.90;;;;;;5014078;28;20457;-67
2023/09/09 12:50:49;;;;;;;5.03;4.57;;;29.60;99.90;;;;;;5013881;28;20481;-66
2023/09/09 12:53:16;;;;;;;6.10;4.03;;;29.90;99.90;;;;;;5013561;28;20468;-66
2023/09/09 12:55:43;;;;;;;4.47;4.07;;;30.10;99.90;;;;;;5013748;28;20511;-67
2023/09/09 12:58:10;;;;;;;5.90;4.40;;;30.40;99.90;;;;;;5014167;28;20489;-66
2023/09/09 13:00:37;;;;;;;4.80;4.30;;;30.50;99.90;;;;;;5013539;28;20861;-66
2023/09/09 13:03:04;;;;;;;4.47;4.03;;;30.70;99.90;;;;;;5006577;28;20826;-66
2023/09/09 13:05:34;;;;;;;4.67;4.27;;;30.80;99.90;;;;;;5013845;28;20468;-66
2023/09/09 13:08:00;;;;;;;4.40;4.00;;;30.90;99.90;;;;;;5013641;28;20830;-67
2023/09/09 13:10:27;;;;;;;6.23;3.87;;;31.10;99.90;;;;;;5013718;28;20460;-66
2023/09/09 13:12:54;;;;;;;4.60;4.20;;;31.20;99.90;;;;;;5013004;28;20980;-67
2023/09/09 13:15:22;;;;;;;4.30;3.90;;;31.30;99.90;;;;;;5013680;28;20825;-66
2023/09/09 13:17:49;;;;;;;6.10;4.60;;;31.30;99.90;;;;;;5013215;28;20461;-67
2023/09/09 13:20:16;;;;;;;5.20;4.67;;;31.30;99.90;;;;;;5013600;28;20808;-66
2023/09/09 13:22:44;;;;;;;4.30;3.90;;;31.30;99.90;;;;;;5012677;28;20457;-66
2023/09/09 13:25:10;;;;;;;8.70;4.83;;;31.40;99.90;;;;;;5013340;28;20462;-67
2023/09/09 13:27:38;;;;;;;6.97;4.67;;;31.50;99.90;;;;;;5013299;28;20462;-66
2023/09/09 13:30:06;;;;;;;7.43;4.17;;;31.50;99.90;;;;;;5013201;28;20937;-67
2023/09/09 13:32:33;;;;;;;4.67;3.87;;;31.50;99.90;;;;;;5012778;28;20481;-67
2023/09/09 13:34:59;;;;;;;4.70;4.30;;;31.50;99.90;;;;;;5013024;28;20453;-67
2023/09/09 13:37:27;;;;;;;4.40;4.00;;;31.40;99.90;;;;;;5013346;28;20537;-67
2023/09/09 13:39:56;;;;;;;7.07;3.97;;;31.30;99.90;;;;;;5013021;28;20473;-67
2023/09/09 13:42:22;;;;;;;5.33;4.83;;;31.30;99.90;;;;;;5012858;28;20481;-67
2023/09/09 13:44:49;;;;;;;5.00;4.50;;;31.20;99.90;;;;;;5012741;28;20487;-66
2023/09/09 13:47:16;;;;;;;4.80;4.30;;;31.20;99.90;;;;;;5013054;28;20457;-66
2023/09/09 13:49:43;;;;;;;5.43;4.27;;;31.30;99.90;;;;;;5012912;28;20458;-66
2023/09/09 13:52:10;;;;;;;4.47;4.07;;;31.50;99.90;;;;;;5012515;28;20477;-66
2023/09/09 13:54:37;;;;;;;4.77;4.03;;;31.60;99.90;;;;;;5012416;28;20458;-66
2023/09/09 13:57:06;;;;;;;5.43;4.93;;;31.70;99.90;;;;;;5012169;28;20840;-67
2023/09/09 13:59:33;;;;;;;4.30;3.90;;;31.70;99.90;;;;;;5012672;28;20485;-66
2023/09/09 14:02:01;;;;;;;4.93;4.13;;;31.60;99.90;;;;;;5012002;28;20919;-66
2023/09/09 14:04:28;;;;;;;4.23;3.83;;;31.60;99.90;;;;;;5012685;28;20960;-67
2023/09/09 14:06:55;;;;;;;6.83;4.30;;;31.50;99.90;;;;;;5012160;28;20464;-66
2023/09/09 14:09:21;;;;;;;4.50;4.10;;;31.50;99.90;;;;;;5012316;28;20458;-66
2023/09/09 14:11:48;;;;;;;5.00;4.50;;;31.50;99.90;;;;;;5011690;28;20508;-66
2023/09/09 14:14:17;;;;;;;4.70;3.93;;;31.40;99.90;;;;;;5012505;28;20461;-67
2023/09/09 14:16:44;;;;;;;4.97;4.27;;;31.40;99.90;;;;;;5012150;28;20475;-67
2023/09/09 14:19:11;;;;;;;4.37;3.97;;;31.40;99.90;;;;;;5012482;28;20485;-67
2023/09/09 14:21:38;;;;;;;4.83;4.00;;;31.10;99.90;;;;;;5011531;28;20477;-66
2023/09/09 14:24:05;;;;;;;4.53;4.13;;;30.70;99.90;;;;;;5012528;28;20809;-67
2023/09/09 14:26:32;;;;;;;5.40;4.67;;;30.50;99.90;;;;;;5012252;28;20817;-66
2023/09/09 14:28:59;;;;;;;4.80;4.40;;;30.50;99.90;;;;;;5011869;28;20457;-67
2023/09/09 14:31:27;;;;;;;5.17;4.50;;;30.60;99.90;;;;;;5011701;28;20489;-66
2023/09/09 14:33:54;;;;;;;4.33;3.53;;;30.80;99.90;;;;;;5011896;28;20544;-66
2023/09/09 14:36:21;;;;;;;4.23;3.90;;;30.90;99.90;;;;;;5012068;28;20462;-66
2023/09/09 14:38:47;;;;;;;5.00;4.10;;;30.90;99.90;;;;;;5011543;28;20488;-66
2023/09/09 14:41:14;;;;;;;4.70;4.30;;;31.00;99.90;;;;;;5011896;28;20472;-66
2023/09/09 14:43:41;;;;;;;5.73;4.50;;;31.00;99.90;;;;;;5011334;28;20466;-67
2023/09/09 14:46:07;;;;;;;4.63;4.23;;;30.90;99.90;;;;;;5012050;28;20465;-67
2023/09/09 14:48:38;;;;;;;4.53;4.13;;;31.00;99.90;;;;;;5011877;28;20465;-66
2023/09/09 14:51:05;;;;;;;4.80;4.30;;;30.90;99.90;;;;;;5011676;28;20481;-66
2023/09/09 14:53:31;;;;;;;4.40;4.00;;;30.90;99.90;;;;;;5011308;28;20483;-66
2023/09/09 14:55:58;;;;;;;5.27;4.17;;;30.90;99.90;;;;;;5011671;28;20461;-66
2023/09/09 14:58:26;;;;;;;5.17;4.07;;;30.80;99.90;;;;;;5011621;28;20457;-67
2023/09/09 15:00:52;;;;;;;4.60;4.20;;;30.80;99.90;;;;;;5011294;28;20489;-66
2023/09/09 15:03:19;;;;;;;4.70;4.30;;;30.80;99.90;;;;;;5011343;28;20465;-67
2023/09/09 15:05:47;;;;;;;5.73;5.07;;;30.80;99.90;;;;;;5011360;28;20979;-67
2023/09/09 15:08:14;;;;;;;4.43;4.13;;;30.70;99.90;;;;;;5011047;28;20457;-67
2023/09/09 15:10:40;;;;;;;4.37;3.97;;;30.70;99.90;;;;;;5011390;28;20509;-66
2023/09/09 15:13:07;;;;;;;4.70;4.30;;;30.60;99.90;;;;;;5010851;28;20457;-66
2023/09/09 15:15:37;;;;;;;4.57;4.17;;;30.60;99.90;;;;;;5011562;28;20462;-67
2023/09/09 15:18:07;;;;;;;4.80;4.20;;;30.60;99.90;;;;;;5011146;28;20867;-67
2023/09/09 15:20:34;;;;;;;5.37;4.30;;;30.50;99.90;;;;;;5011185;28;20887;-66
2023/09/09 15:23:02;;;;;;;6.23;4.40;;;30.50;99.90;;;;;;5010636;28;20461;-67
2023/09/09 15:25:30;;;;;;;5.47;4.00;;;30.50;99.90;;;;;;5011528;28;20461;-66
2023/09/09 15:27:56;;;;;;;4.50;4.10;;;30.40;99.90;;;;;;5010943;28;20465;-67
2023/09/09 15:30:23;;;;;;;5.00;4.60;;;30.40;99.90;;;;;;5011328;28;20457;-67
2023/09/09 15:32:50;;;;;;;4.90;4.50;;;30.40;99.90;;;;;;5010563;28;20465;-67
2023/09/09 15:35:16;;;;;;;5.17;4.67;;;30.40;99.90;;;;;;5011346;28;20461;-67
2023/09/09 15:37:43;;;;;;;5.60;4.57;;;30.30;99.90;;;;;;5011351;28;20457;-67
2023/09/09 15:40:12;;;;;;;4.43;4.00;;;30.30;99.90;;;;;;5011023;28;20485;-67
2023/09/09 15:42:38;;;;;;;4.80;4.40;;;30.20;99.90;;;;;;5010742;28;20484;-67
2023/09/09 15:45:06;;;;;;;5.63;4.33;;;30.10;99.90;;;;;;5010629;28;20484;-66
2023/09/09 15:47:33;;;;;;;6.43;4.77;;;30.10;99.90;;;;;;5011128;28;20464;-66
2023/09/09 15:49:59;;;;;;;5.00;4.40;;;30.00;99.90;;;;;;5010595;28;20454;-67
2023/09/09 15:52:26;;;;;;;4.37;4.03;;;29.90;99.90;;;;;;5010370;28;20473;-67
2023/09/09 15:54:53;;;;;;;5.17;4.50;;;29.90;99.90;;;;;;5010517;28;20552;-66
2023/09/09 15:57:21;;;;;;;8.10;4.80;;;29.80;99.90;;;;;;5004414;28;20468;-66
2023/09/09 15:59:48;;;;;;;4.43;4.03;;;29.70;99.90;;;;;;5000421;28;20601;-67
2023/09/09 16:02:15;;;;;;;4.40;4.00;;;29.60;99.90;;;;;;5005595;28;20484;-66
2023/09/09 16:04:42;;;;;;;6.10;4.70;;;29.60;99.90;;;;;;5010442;28;20465;-67
2023/09/09 16:07:09;;;;;;;5.00;4.60;;;29.60;99.90;;;;;;5010149;28;20465;-66
2023/09/09 16:09:38;;;;;;;5.07;4.57;;;29.50;99.90;;;;;;5009791;28;20453;-66
2023/09/09 16:12:05;;;;;;;4.90;4.50;;;29.40;99.90;;;;;;5009164;28;20485;-66
2023/09/09 16:14:33;;;;;;;5.10;4.60;;;29.30;99.90;;;;;;5010304;28;20960;-67
2023/09/09 16:17:00;;;;;;;4.57;4.17;;;29.20;99.90;;;;;;4999035;28;20465;-67
2023/09/09 16:19:27;;;;;;;5.90;4.70;;;29.10;99.90;;;;;;5006568;28;20485;-67
2023/09/09 16:21:54;;;;;;;5.10;4.60;;;29.10;99.90;;;;;;5008040;28;20488;-66